createdAt,value
2024-05-09T00:03:10.901Z,1011.6
2024-05-09T00:18:31.000Z,1011.6
2024-05-09T00:33:52.850Z,1011.5
2024-05-09T00:49:13.761Z,1011.4
2024-05-09T01:04:34.780Z,1011.4
2024-05-09T01:19:55.739Z,1011.4
2024-05-09T01:35:16.710Z,1011.4
2024-05-09T01:50:37.661Z,1011.6
2024-05-09T02:05:58.636Z,1011.6
2024-05-09T02:21:18.616Z,1011.6
2024-05-09T02:36:39.587Z,1011.5
2024-05-09T02:52:00.000Z,1011.5
2024-05-09T03:07:21.484Z,1011.5
2024-05-09T03:22:42.397Z,1011.5
2024-05-09T03:38:03.329Z,1011.3
2024-05-09T03:53:23.276Z,1011.4
2024-05-09T04:08:43.210Z,1011.3
2024-05-09T04:24:03.152Z,1011.5
2024-05-09T04:39:24.071Z,1011.6
2024-05-09T04:54:44.940Z,1011.5
2024-05-09T05:10:05.924Z,1011.7
2024-05-09T05:25:26.780Z,1011.8
2024-05-09T05:40:47.744Z,1011.8
2024-05-09T05:56:08.668Z,1011.9
2024-05-09T06:11:29.575Z,1011.9
2024-05-09T06:26:50.519Z,1011.9
2024-05-09T06:42:11.441Z,1011.8
2024-05-09T06:57:32.366Z,1011.9
2024-05-09T07:12:53.279Z,1011.9
2024-05-09T07:28:14.210Z,1011.9
2024-05-09T07:58:55.073Z,1011.7
2024-05-09T08:14:16.007Z,1011.7
2024-05-09T08:29:36.948Z,1011.6
2024-05-09T08:44:57.872Z,1011.5
2024-05-09T09:00:18.800Z,1011.5
2024-05-09T09:15:38.744Z,1011.5
2024-05-09T09:16:59.939Z,1011.5
2024-05-09T09:18:21.025Z,1011.5
2024-05-09T09:19:42.028Z,1011.5
2024-05-09T09:21:03.180Z,1011.5
2024-05-09T09:22:24.184Z,1011.5
2024-05-09T09:23:45.336Z,1011.5
2024-05-09T09:25:06.421Z,1011.5
2024-05-09T09:26:27.504Z,1011.5
2024-05-09T09:27:48.560Z,1011.5
2024-05-09T09:29:09.638Z,1011.5
2024-05-09T09:30:30.721Z,1011.5
2024-05-09T09:31:51.788Z,1011.5
2024-05-09T09:33:12.881Z,1011.5
2024-05-09T09:34:32.000Z,1011.5
2024-05-09T09:35:54.038Z,1011.4
2024-05-09T09:37:15.120Z,1011.4
2024-05-09T09:38:36.196Z,1011.4
2024-05-09T09:39:57.286Z,1011.4
2024-05-09T09:41:18.353Z,1011.4
2024-05-09T09:42:38.457Z,1011.4
2024-05-09T09:43:58.559Z,1011.4
2024-05-09T09:45:18.651Z,1011.4
2024-05-09T09:46:39.658Z,1011.3
2024-05-09T09:48:00.796Z,1011.4
2024-05-09T09:49:21.806Z,1011.4
2024-05-09T09:50:42.964Z,1011.4
2024-05-09T09:52:04.000Z,1011.4
2024-05-09T09:53:25.101Z,1011.4
2024-05-09T09:54:46.176Z,1011.4
2024-05-09T09:56:07.267Z,1011.4
2024-05-09T09:57:28.339Z,1011.4
2024-05-09T09:58:49.417Z,1011.4
2024-05-09T10:00:10.482Z,1011.4
2024-05-09T10:01:31.563Z,1011.4
2024-05-09T10:02:52.768Z,1011.4
2024-05-09T10:04:13.838Z,1011.4
2024-05-09T10:05:34.912Z,1011.4
2024-05-09T10:06:55.986Z,1011.4
2024-05-09T10:08:17.061Z,1011.4
2024-05-09T10:09:38.151Z,1011.4
2024-05-09T10:10:58.255Z,1011.4
2024-05-09T10:12:18.328Z,1011.4
2024-05-09T10:13:39.419Z,1011.4
2024-05-09T10:15:00.491Z,1011.4
2024-05-09T10:16:21.559Z,1011.4
2024-05-09T10:17:42.639Z,1011.4
2024-05-09T10:19:03.721Z,1011.4
2024-05-09T10:21:45.870Z,1011.3
2024-05-09T10:23:06.944Z,1011.3
2024-05-09T10:24:28.021Z,1011.3
2024-05-09T10:25:49.099Z,1011.3
2024-05-09T10:27:10.106Z,1011.3
2024-05-09T10:28:31.235Z,1011.2
2024-05-09T10:29:52.446Z,1011.2
2024-05-09T10:31:13.533Z,1011.2
2024-05-09T10:32:34.604Z,1011.2
2024-05-09T10:33:55.684Z,1011.2
2024-05-09T10:35:16.751Z,1011.2
2024-05-09T10:36:37.836Z,1011.2
2024-05-09T10:37:58.901Z,1011.2
2024-05-09T10:39:19.009Z,1011.2
2024-05-09T10:40:39.119Z,1011.2
2024-05-09T10:41:59.217Z,1011.2
2024-05-09T10:43:20.293Z,1011.2
2024-05-09T10:44:41.365Z,1011.2
2024-05-09T10:46:02.437Z,1011.2
2024-05-09T10:47:23.510Z,1011.1
2024-05-09T10:48:44.587Z,1011.1
2024-05-09T10:50:05.675Z,1011.1
2024-05-09T10:51:26.751Z,1011.1
2024-05-09T10:52:47.822Z,1011.1
2024-05-09T10:54:08.899Z,1011.1
2024-05-09T10:55:29.969Z,1011.1
2024-05-09T10:56:50.974Z,1011.1
2024-05-09T10:58:12.135Z,1011.1
2024-05-09T10:59:32.215Z,1011.1
2024-05-09T11:00:53.300Z,1011.1
2024-05-09T11:02:14.381Z,1011.1
2024-05-09T11:03:35.449Z,1011.1
2024-05-09T11:04:56.521Z,1011.1
2024-05-09T11:06:17.607Z,1011.1
2024-05-09T11:07:37.695Z,1011.1
2024-05-09T11:08:57.801Z,1011.1
2024-05-09T11:10:18.869Z,1011.1
2024-05-09T11:11:39.949Z,1011.1
2024-05-09T11:13:01.027Z,1011.1
2024-05-09T11:14:22.094Z,1011
2024-05-09T11:15:43.186Z,1011
2024-05-09T11:17:04.243Z,1011
2024-05-09T11:18:25.340Z,1011
2024-05-09T11:19:46.405Z,1011
2024-05-09T11:21:07.406Z,1010.9
2024-05-09T11:22:28.563Z,1010.9
2024-05-09T11:23:49.637Z,1010.9
2024-05-09T11:25:10.724Z,1010.9
2024-05-09T11:26:30.810Z,1010.9
2024-05-09T11:27:51.901Z,1010.9
2024-05-09T11:29:12.898Z,1010.9
2024-05-09T11:30:34.038Z,1010.9
2024-05-09T11:31:55.119Z,1010.9
2024-05-09T11:33:16.195Z,1010.9
2024-05-09T11:34:36.298Z,1010.9
2024-05-09T11:35:56.382Z,1010.9
2024-05-09T11:37:17.466Z,1010.9
2024-05-09T11:38:38.547Z,1010.9
2024-05-09T11:39:59.628Z,1010.9
2024-05-09T11:41:20.704Z,1010.9
2024-05-09T11:42:41.767Z,1010.8
2024-05-09T11:44:02.852Z,1010.8
2024-05-09T11:45:23.916Z,1010.8
2024-05-09T11:46:45.002Z,1010.7
2024-05-09T11:48:06.065Z,1010.7
2024-05-09T11:49:27.153Z,1010.7
2024-05-09T11:50:48.153Z,1010.7
2024-05-09T11:52:09.297Z,1010.7
2024-05-09T11:53:29.394Z,1010.7
2024-05-09T11:54:50.484Z,1010.7
2024-05-09T11:56:11.474Z,1010.7
2024-05-09T11:57:32.628Z,1010.7
2024-05-09T11:58:53.707Z,1010.7
2024-05-09T12:00:14.779Z,1010.7
2024-05-09T12:01:35.849Z,1010.7
2024-05-09T12:02:56.942Z,1010.7
2024-05-09T12:04:18.009Z,1010.7
2024-05-09T12:05:39.090Z,1010.6
2024-05-09T12:07:00.172Z,1010.6
2024-05-09T12:08:21.248Z,1010.6
2024-05-09T12:09:42.322Z,1010.6
2024-05-09T12:11:02.430Z,1010.5
2024-05-09T12:12:23.495Z,1010.5
2024-05-09T12:13:44.570Z,1010.5
2024-05-09T12:15:05.640Z,1010.5
2024-05-09T12:16:26.727Z,1010.5
2024-05-09T12:17:47.728Z,1010.5
2024-05-09T12:19:08.888Z,1010.5
2024-05-09T12:20:29.956Z,1010.4
2024-05-09T12:21:51.032Z,1010.4
2024-05-09T12:23:12.105Z,1010.4
2024-05-09T12:24:33.191Z,1010.4
2024-05-09T12:25:54.272Z,1010.4
2024-05-09T12:27:15.354Z,1010.4
2024-05-09T12:28:35.449Z,1010.4
2024-05-09T12:29:56.466Z,1010.4
2024-05-09T12:31:17.538Z,1010.4
2024-05-09T12:32:38.633Z,1010.4
2024-05-09T12:33:59.697Z,1010.4
2024-05-09T12:35:20.783Z,1010.4
2024-05-09T12:36:41.849Z,1010.3
2024-05-09T12:38:02.921Z,1010.3
2024-05-09T12:39:23.984Z,1010.3
2024-05-09T12:40:45.074Z,1010.3
2024-05-09T12:42:06.166Z,1010.2
2024-05-09T12:43:27.226Z,1010.2
2024-05-09T12:44:48.288Z,1010.2
2024-05-09T12:47:29.479Z,1010.2
2024-05-09T12:48:50.560Z,1010.2
2024-05-09T12:50:11.640Z,1010.2
2024-05-09T12:51:32.706Z,1010.2
2024-05-09T12:52:53.801Z,1010.2
2024-05-09T12:55:35.909Z,1010.2
2024-05-09T12:56:57.016Z,1010.2
2024-05-09T12:58:18.105Z,1010.2
2024-05-09T12:59:39.170Z,1010.2
2024-05-09T13:01:00.254Z,1010.1
2024-05-09T13:03:42.399Z,1010.1
2024-05-09T13:05:02.503Z,1010
2024-05-09T13:06:23.725Z,1010
2024-05-09T13:07:43.816Z,1010
2024-05-09T13:09:04.865Z,1010
2024-05-09T13:10:25.978Z,1010
2024-05-09T13:11:47.049Z,1010
2024-05-09T13:13:08.123Z,1010
2024-05-09T13:14:29.204Z,1010
2024-05-09T13:15:50.273Z,1010
2024-05-09T13:17:11.367Z,1009.9
2024-05-09T13:18:32.435Z,1009.9
2024-05-09T13:19:52.527Z,1009.9
2024-05-09T13:21:12.624Z,1009.9
2024-05-09T13:22:33.673Z,1010
2024-05-09T13:23:54.803Z,1009.9
2024-05-09T13:25:15.874Z,1009.9
2024-05-09T13:26:36.940Z,1009.9
2024-05-09T13:27:58.020Z,1009.9
2024-05-09T13:30:40.171Z,1009.8
2024-05-09T13:32:01.250Z,1009.8
2024-05-09T13:33:22.330Z,1009.8
2024-05-09T13:34:43.420Z,1009.8
2024-05-09T13:36:04.483Z,1009.8
2024-05-09T13:37:25.565Z,1009.8
2024-05-09T13:38:45.673Z,1009.8
2024-05-09T13:40:06.738Z,1009.8
2024-05-09T13:41:27.832Z,1009.8
2024-05-09T13:44:09.974Z,1009.7
2024-05-09T13:45:31.192Z,1009.7
2024-05-09T13:46:51.311Z,1009.7
2024-05-09T13:48:11.398Z,1009.7
2024-05-09T13:49:32.431Z,1009.7
2024-05-09T13:50:53.550Z,1009.7
2024-05-09T13:52:14.591Z,1009.7
2024-05-09T13:53:35.707Z,1009.7
2024-05-09T13:54:56.784Z,1009.6
2024-05-09T13:56:17.863Z,1009.6
2024-05-09T13:57:38.935Z,1009.6
2024-05-09T13:59:00.009Z,1009.6
2024-05-09T14:00:20.112Z,1009.6
2024-05-09T14:01:40.203Z,1009.5
2024-05-09T14:03:01.285Z,1009.5
2024-05-09T14:04:22.361Z,1009.5
2024-05-09T14:05:43.447Z,1009.5
2024-05-09T14:07:04.516Z,1009.5
2024-05-09T14:08:25.587Z,1009.5
2024-05-09T14:09:46.667Z,1009.5
2024-05-09T14:11:07.746Z,1009.5
2024-05-09T14:12:28.810Z,1009.5
2024-05-09T14:13:49.895Z,1009.5
2024-05-09T14:15:10.963Z,1009.5
2024-05-09T14:16:32.042Z,1009.5
2024-05-09T14:17:53.116Z,1009.4
2024-05-09T14:19:13.218Z,1009.4
2024-05-09T14:20:34.305Z,1009.4
2024-05-09T14:21:55.368Z,1009.4
2024-05-09T14:23:16.457Z,1009.3
2024-05-09T14:24:37.521Z,1009.3
2024-05-09T14:25:58.608Z,1009.3
2024-05-09T14:27:18.706Z,1009.3
2024-05-09T14:28:38.805Z,1009.3
2024-05-09T14:29:59.834Z,1009.3
2024-05-09T14:31:20.944Z,1009.3
2024-05-09T14:32:41.993Z,1009.3
2024-05-09T14:34:03.096Z,1009.3
2024-05-09T14:35:24.183Z,1009.2
2024-05-09T14:36:45.233Z,1009.2
2024-05-09T14:38:06.326Z,1009.2
2024-05-09T14:39:27.402Z,1009.2
2024-05-09T14:40:48.495Z,1009.2
2024-05-09T14:42:09.561Z,1009.2
2024-05-09T14:43:30.609Z,1009.2
2024-05-09T14:44:51.713Z,1009.2
2024-05-09T14:46:11.807Z,1009.2
2024-05-09T14:47:32.876Z,1009.2
2024-05-09T14:48:53.975Z,1009.2
2024-05-09T14:50:15.040Z,1009.2
2024-05-09T14:51:36.128Z,1009.2
2024-05-09T14:52:57.212Z,1009.1
2024-05-09T14:54:17.310Z,1009.1
2024-05-09T14:55:37.404Z,1009.1
2024-05-09T14:56:58.481Z,1009.1
2024-05-09T14:58:19.561Z,1009.1
2024-05-09T14:59:40.624Z,1009
2024-05-09T15:01:01.700Z,1009
2024-05-09T15:02:22.789Z,1009
2024-05-09T15:03:43.861Z,1009
2024-05-09T15:05:04.938Z,1009
2024-05-09T15:06:26.010Z,1008.9
2024-05-09T15:07:47.091Z,1008.9
2024-05-09T15:09:08.165Z,1008.9
2024-05-09T15:10:29.241Z,1008.9
2024-05-09T15:11:50.322Z,1009
2024-05-09T15:13:10.414Z,1008.9
2024-05-09T15:14:31.481Z,1008.9
2024-05-09T15:15:52.563Z,1008.9
2024-05-09T15:17:13.647Z,1008.9
2024-05-09T15:18:34.734Z,1008.9
2024-05-09T15:19:55.811Z,1008.9
2024-05-09T15:21:16.874Z,1008.9
2024-05-09T15:22:37.946Z,1008.9
2024-05-09T15:23:59.033Z,1008.9
2024-05-09T15:25:20.099Z,1008.8
2024-05-09T15:26:40.204Z,1008.8
2024-05-09T15:28:00.307Z,1008.8
2024-05-09T15:29:20.416Z,1008.8
2024-05-09T15:30:41.491Z,1008.8
2024-05-09T15:32:02.554Z,1008.8
2024-05-09T15:33:23.630Z,1008.8
2024-05-09T15:34:44.705Z,1008.8
2024-05-09T15:36:05.797Z,1008.8
2024-05-09T15:37:26.873Z,1008.8
2024-05-09T15:38:47.955Z,1008.8
2024-05-09T15:40:09.017Z,1008.8
2024-05-09T15:41:30.097Z,1008.8
2024-05-09T15:42:51.188Z,1008.7
2024-05-09T15:44:12.275Z,1008.7
2024-05-09T15:45:33.337Z,1008.7
2024-05-09T15:46:53.437Z,1008.7
2024-05-09T15:48:14.000Z,1008.7
2024-05-09T15:49:35.576Z,1008.7
2024-05-09T15:50:56.633Z,1008.7
2024-05-09T15:52:17.721Z,1008.7
2024-05-09T15:53:38.784Z,1008.7
2024-05-09T15:54:58.899Z,1008.6
2024-05-09T15:56:18.988Z,1008.6
2024-05-09T15:57:40.072Z,1008.7
2024-05-09T15:59:01.166Z,1008.6
2024-05-09T16:00:22.243Z,1008.6
2024-05-09T16:01:43.303Z,1008.6
2024-05-09T16:03:04.384Z,1008.6
2024-05-09T16:04:25.448Z,1008.6
2024-05-09T16:05:46.547Z,1008.6
2024-05-09T16:07:07.621Z,1008.6
2024-05-09T16:08:28.698Z,1008.6
2024-05-09T16:09:49.776Z,1008.6
2024-05-09T16:11:10.843Z,1008.6
2024-05-09T16:12:31.937Z,1008.6
2024-05-09T16:13:52.013Z,1008.5
2024-05-09T16:15:13.104Z,1008.5
2024-05-09T16:16:34.172Z,1008.5
2024-05-09T16:17:55.252Z,1008.5
2024-05-09T16:19:16.317Z,1008.5
2024-05-09T16:20:37.411Z,1008.5
2024-05-09T16:21:57.506Z,1008.5
2024-05-09T16:23:17.604Z,1008.5
2024-05-09T16:24:37.713Z,1008.5
2024-05-09T16:25:58.784Z,1008.5
2024-05-09T16:27:19.866Z,1008.5
2024-05-09T16:28:40.940Z,1008.5
2024-05-09T16:30:01.999Z,1008.5
2024-05-09T16:31:23.083Z,1008.5
2024-05-09T16:32:44.179Z,1008.5
2024-05-09T16:34:05.233Z,1008.5
2024-05-09T16:35:26.333Z,1008.5
2024-05-09T16:36:47.392Z,1008.5
2024-05-09T16:38:08.474Z,1008.5
2024-05-09T16:39:29.563Z,1008.5
2024-05-09T16:40:50.619Z,1008.5
2024-05-09T16:42:10.722Z,1008.5
2024-05-09T16:43:31.804Z,1008.5
2024-05-09T16:44:52.868Z,1008.5
2024-05-09T16:46:13.933Z,1008.5
2024-05-09T16:47:35.030Z,1008.5
2024-05-09T16:48:56.103Z,1008.5
2024-05-09T16:50:17.185Z,1008.5
2024-05-09T16:51:38.259Z,1008.5
2024-05-09T16:52:59.342Z,1008.5
2024-05-09T16:54:19.454Z,1008.5
2024-05-09T16:55:39.547Z,1008.5
2024-05-09T16:57:00.606Z,1008.5
2024-05-09T16:58:21.693Z,1008.5
2024-05-09T16:59:42.761Z,1008.5
2024-05-09T17:01:03.841Z,1008.5
2024-05-09T17:02:24.923Z,1008.5
2024-05-09T17:03:46.003Z,1008.5
2024-05-09T17:06:28.155Z,1008.5
2024-05-09T17:07:49.232Z,1008.5
2024-05-09T17:09:10.295Z,1008.5
2024-05-09T17:10:31.375Z,1008.4
2024-05-09T17:11:52.455Z,1008.4
2024-05-09T17:13:12.545Z,1008.4
2024-05-09T17:14:33.615Z,1008.4
2024-05-09T17:15:54.674Z,1008.4
2024-05-09T17:17:15.752Z,1008.4
2024-05-09T17:18:36.806Z,1008.4
2024-05-09T17:19:57.895Z,1008.4
2024-05-09T17:21:18.943Z,1008.4
2024-05-09T17:22:39.047Z,1008.4
2024-05-09T17:23:59.125Z,1008.4
2024-05-09T17:25:20.192Z,1008.4
2024-05-09T17:26:41.239Z,1008.4
2024-05-09T17:28:02.318Z,1008.4
2024-05-09T17:29:23.376Z,1008.4
2024-05-09T17:30:44.442Z,1008.4
2024-05-09T17:32:05.514Z,1008.4
2024-05-09T17:33:26.574Z,1008.4
2024-05-09T17:34:47.638Z,1008.4
2024-05-09T17:36:08.706Z,1008.4
2024-05-09T17:37:29.776Z,1008.4
2024-05-09T17:38:50.823Z,1008.4
2024-05-09T17:40:11.913Z,1008.4
2024-05-09T17:41:31.998Z,1008.4
2024-05-09T17:42:53.069Z,1008.4
2024-05-09T17:44:14.130Z,1008.4
2024-05-09T17:46:56.269Z,1008.4
2024-05-09T17:48:17.318Z,1008.4
2024-05-09T17:49:38.387Z,1008.4
2024-05-09T17:50:58.480Z,1008.4
2024-05-09T17:52:19.645Z,1008.4
2024-05-09T17:53:40.736Z,1008.4
2024-05-09T17:55:01.792Z,1008.4
2024-05-09T17:56:22.874Z,1008.4
2024-05-09T17:57:43.940Z,1008.4
2024-05-09T17:59:05.010Z,1008.4
2024-05-09T18:00:26.064Z,1008.4
2024-05-09T18:01:47.134Z,1008.4
2024-05-09T18:03:08.205Z,1008.4
2024-05-09T18:04:29.258Z,1008.4
2024-05-09T18:05:50.333Z,1008.4
2024-05-09T18:07:11.392Z,1008.4
2024-05-09T18:08:32.451Z,1008.4
2024-05-09T18:11:13.618Z,1008.4
2024-05-09T18:12:34.690Z,1008.4
2024-05-09T18:13:55.746Z,1008.4
2024-05-09T18:15:16.802Z,1008.4
2024-05-09T18:16:37.878Z,1008.4
2024-05-09T18:17:58.950Z,1008.4
2024-05-09T18:19:19.018Z,1008.5
2024-05-09T18:20:39.147Z,1008.5
2024-05-09T18:21:59.244Z,1008.5
2024-05-09T18:23:19.325Z,1008.5
2024-05-09T18:24:40.395Z,1008.5
2024-05-09T18:26:01.455Z,1008.5
2024-05-09T18:27:22.518Z,1008.5
2024-05-09T18:28:43.582Z,1008.5
2024-05-09T18:30:04.644Z,1008.5
2024-05-09T18:31:25.724Z,1008.5
2024-05-09T18:32:46.761Z,1008.5
2024-05-09T18:34:07.842Z,1008.5
2024-05-09T18:35:28.922Z,1008.5
2024-05-09T18:36:49.978Z,1008.5
2024-05-09T18:38:11.039Z,1008.5
2024-05-09T18:39:32.100Z,1008.5
2024-05-09T18:40:52.188Z,1008.5
2024-05-09T18:42:13.247Z,1008.5
2024-05-09T18:43:34.317Z,1008.6
2024-05-09T18:44:55.392Z,1008.5
2024-05-09T18:46:16.449Z,1008.5
2024-05-09T18:47:37.516Z,1008.5
2024-05-09T18:48:58.577Z,1008.5
2024-05-09T18:50:19.652Z,1008.5
2024-05-09T18:51:40.724Z,1008.5
2024-05-09T18:53:01.785Z,1008.5
2024-05-09T18:54:22.838Z,1008.6
2024-05-09T18:55:42.931Z,1008.6
2024-05-09T18:57:03.031Z,1008.6
2024-05-09T18:58:24.079Z,1008.6
2024-05-09T18:59:45.000Z,1008.6
2024-05-09T19:01:06.222Z,1008.7
2024-05-09T19:02:27.296Z,1008.7
2024-05-09T19:03:48.351Z,1008.7
2024-05-09T19:05:09.414Z,1008.7
2024-05-09T19:06:30.485Z,1008.7
2024-05-09T19:07:51.547Z,1008.7
2024-05-09T19:09:12.616Z,1008.7
2024-05-09T19:10:33.729Z,1008.7
2024-05-09T19:11:54.794Z,1008.8
2024-05-09T19:13:15.903Z,1008.8
2024-05-09T19:14:36.035Z,1008.8
2024-05-09T19:15:57.112Z,1008.8
2024-05-09T19:17:18.208Z,1008.8
2024-05-09T19:18:39.321Z,1008.8
2024-05-09T19:20:00.390Z,1008.8
2024-05-09T19:21:21.462Z,1008.8
2024-05-09T19:22:42.718Z,1008.8
2024-05-09T19:24:02.840Z,1008.8
2024-05-09T19:25:23.948Z,1008.8
2024-05-09T19:26:45.017Z,1008.8
2024-05-09T19:28:06.167Z,1008.8
2024-05-09T19:29:27.277Z,1008.8
2024-05-09T19:30:48.378Z,1008.8
2024-05-09T19:32:09.493Z,1008.8
2024-05-09T19:33:30.588Z,1008.8
2024-05-09T19:34:51.702Z,1008.8
2024-05-09T19:36:12.803Z,1008.8
2024-05-09T19:37:33.916Z,1008.8
2024-05-09T19:38:55.036Z,1008.8
2024-05-09T19:40:16.125Z,1008.8
2024-05-09T19:41:36.266Z,1008.9
2024-05-09T19:42:57.373Z,1008.9
2024-05-09T19:44:18.483Z,1008.9
2024-05-09T19:45:39.607Z,1008.9
2024-05-09T19:47:00.701Z,1008.9
2024-05-09T19:48:21.825Z,1008.9
2024-05-09T19:49:41.944Z,1008.9
2024-05-09T19:51:02.086Z,1008.9
2024-05-09T19:52:22.211Z,1008.9
2024-05-09T19:53:43.313Z,1008.9
2024-05-09T19:55:04.434Z,1008.9
2024-05-09T19:56:25.519Z,1008.9
2024-05-09T19:57:46.652Z,1009
2024-05-09T19:59:07.763Z,1009
2024-05-09T20:00:28.859Z,1009
2024-05-09T20:01:49.964Z,1009
2024-05-09T20:03:11.073Z,1009
2024-05-09T20:04:32.180Z,1009
2024-05-09T20:05:53.295Z,1009
2024-05-09T20:07:14.388Z,1009
2024-05-09T20:08:35.492Z,1009
2024-05-09T20:09:55.589Z,1009.1
2024-05-09T20:11:16.729Z,1009.1
2024-05-09T20:12:37.834Z,1009.1
2024-05-09T20:13:58.948Z,1009.1
2024-05-09T20:15:20.070Z,1009.1
2024-05-09T20:16:41.175Z,1009.1
2024-05-09T20:18:01.304Z,1009.1
2024-05-09T20:19:21.430Z,1009.1
2024-05-09T20:20:42.541Z,1009.1
2024-05-09T20:22:03.660Z,1009.1
2024-05-09T20:23:24.749Z,1009.1
2024-05-09T20:24:45.859Z,1009.1
2024-05-09T20:26:06.972Z,1009.1
2024-05-09T20:28:49.187Z,1009.1
2024-05-09T20:30:10.296Z,1009.1
2024-05-09T20:31:31.402Z,1009.1
2024-05-09T20:32:52.514Z,1009.1
2024-05-09T20:34:13.631Z,1009.1
2024-05-09T20:35:34.726Z,1009.1
2024-05-09T20:36:54.865Z,1009.1
2024-05-09T20:38:15.955Z,1009.1
2024-05-09T20:39:37.079Z,1009.1
2024-05-09T20:40:58.177Z,1009.1
2024-05-09T20:42:19.282Z,1009
2024-05-09T20:43:40.400Z,1009
2024-05-09T20:45:01.498Z,1009
2024-05-09T20:46:21.642Z,1009
2024-05-09T20:47:41.777Z,1009.1
2024-05-09T20:49:03.007Z,1009.1
2024-05-09T20:50:24.073Z,1009.1
2024-05-09T20:51:45.216Z,1009
2024-05-09T20:53:06.334Z,1009
2024-05-09T20:54:27.420Z,1009
2024-05-09T20:55:48.543Z,1009
2024-05-09T20:57:09.643Z,1009
2024-05-09T20:58:30.747Z,1009
2024-05-09T20:59:51.861Z,1009
2024-05-09T21:01:12.958Z,1009
2024-05-09T21:02:34.064Z,1009
2024-05-09T21:03:55.176Z,1009
2024-05-09T21:05:16.288Z,1009
2024-05-09T21:06:36.416Z,1009
2024-05-09T21:09:18.632Z,1009
2024-05-09T21:10:39.746Z,1009
2024-05-09T21:12:00.846Z,1009
2024-05-09T21:13:21.948Z,1009
2024-05-09T21:14:43.061Z,1009
2024-05-09T21:16:03.201Z,1009
2024-05-09T21:17:24.279Z,1009
2024-05-09T21:18:45.416Z,1009
2024-05-09T21:20:06.649Z,1009
2024-05-09T21:21:27.757Z,1009
2024-05-09T21:22:48.855Z,1009
2024-05-09T21:24:09.957Z,1009
2024-05-09T21:25:31.079Z,1009
2024-05-09T21:26:52.186Z,1009
2024-05-09T21:28:13.302Z,1009
2024-05-09T21:29:34.398Z,1009
2024-05-09T21:30:55.491Z,1009
2024-05-09T21:32:16.622Z,1009
2024-05-09T21:33:37.735Z,1009
2024-05-09T21:34:58.840Z,1009
2024-05-09T21:36:19.958Z,1009.1
2024-05-09T21:37:40.079Z,1009.1
2024-05-09T21:39:01.182Z,1009.1
2024-05-09T21:40:22.299Z,1009.1
2024-05-09T21:41:43.396Z,1009.1
2024-05-09T21:43:03.540Z,1009.1
2024-05-09T21:44:23.686Z,1009.1
2024-05-09T21:47:04.902Z,1009.1
2024-05-09T21:48:26.021Z,1009.1
2024-05-09T21:49:47.129Z,1009.1
2024-05-09T21:51:08.240Z,1009.1
2024-05-09T21:52:29.338Z,1009.1
2024-05-09T21:53:50.460Z,1009.1
2024-05-09T21:55:11.557Z,1009.1
2024-05-09T21:56:32.669Z,1009.1
2024-05-09T21:57:53.771Z,1009.1
2024-05-09T21:59:14.882Z,1009.1
2024-05-09T22:00:35.998Z,1009.1
2024-05-09T22:01:57.105Z,1009.1
2024-05-09T22:03:17.216Z,1009.1
2024-05-09T22:04:38.322Z,1009
2024-05-09T22:05:59.433Z,1009
2024-05-09T22:07:20.537Z,1009
2024-05-09T22:08:41.656Z,1009
2024-05-09T22:10:02.755Z,1009
2024-05-09T22:11:23.861Z,1009
2024-05-09T22:12:44.011Z,1009
2024-05-09T22:14:04.135Z,1009
2024-05-09T22:15:25.252Z,1009
2024-05-09T22:16:46.362Z,1009
2024-05-09T22:18:07.459Z,1009
2024-05-09T22:19:28.573Z,1009
2024-05-09T22:20:49.668Z,1009
2024-05-09T22:22:10.746Z,1009
2024-05-09T22:23:30.915Z,1009
2024-05-09T22:24:51.985Z,1009
2024-05-09T22:26:13.124Z,1009
2024-05-09T22:27:34.243Z,1009
2024-05-09T22:28:55.337Z,1009
2024-05-09T22:30:16.449Z,1009
2024-05-09T22:31:37.550Z,1009
2024-05-09T22:32:58.672Z,1009
2024-05-09T22:34:19.772Z,1009
2024-05-09T22:35:40.840Z,1009
2024-05-09T22:38:23.097Z,1009
2024-05-09T22:39:44.212Z,1009
2024-05-09T22:41:05.464Z,1009
2024-05-09T22:42:25.588Z,1009
2024-05-09T22:43:46.705Z,1009
2024-05-09T22:45:07.820Z,1009
2024-05-09T23:00:28.786Z,1008.9
2024-05-09T23:15:49.754Z,1008.9
2024-05-09T23:31:10.673Z,1008.8
2024-05-09T23:46:31.000Z,1008.8
